Time;durP1;ratioP1;P1;durP2;ratioP2;P2;SDS_P1;SDS_P2;PMS_P1;PMS_P2;Temp;Humidity;BMP_temperature;BMP_pressure;BME280_temperature;BME280_humidity;BME280_pressure;Samples;Min_cycle;Max_cycle;Signal;HPM_P1;HPM_P2
2022/12/31 00:01:15;;;;;;;3.75;2.17;;;;;;;11.94;100.00;100211.53;5011541;28;20567;-77
2022/12/31 00:03:42;;;;;;;2.55;2.22;;;;;;;11.96;100.00;100212.25;5009709;28;20038;-77
2022/12/31 00:06:26;;;;;;;4.68;1.92;;;;;;;11.95;100.00;100199.63;5019885;28;20045;-76
2022/12/31 00:08:54;;;;;;;2.50;2.10;;;;;;;11.97;100.00;100211.25;5025385;28;20037;-76
2022/12/31 00:11:20;;;;;;;3.38;1.92;;;;;;;11.96;100.00;100201.34;5022674;28;20509;-76
2022/12/31 00:13:46;;;;;;;2.65;2.00;;;;;;;11.97;100.00;100204.94;5030434;28;20099;-76
2022/12/31 00:16:39;;;;;;;2.85;2.00;;;;;;;11.99;100.00;100217.44;5019789;28;20065;-76
2022/12/31 00:19:06;;;;;;;;;;;;;;;12.00;100.00;100216.44;5006416;28;20046;-76
2022/12/31 00:21:33;;;;;;;2.70;2.25;;;;;;;12.00;100.00;100213.72;5009513;28;19959;-76
2022/12/31 00:23:58;;;;;;;2.78;2.03;;;;;;;11.97;100.00;100199.47;5010218;28;20111;-77
2022/12/31 00:26:26;;;;;;;2.20;2.00;;;;;;;12.01;100.00;100209.13;5008518;28;20541;-76
2022/12/31 00:28:53;;;;;;;3.63;2.38;;;;;;;12.01;100.00;100209.13;5008838;28;20026;-77
2022/12/31 00:31:25;;;;;;;2.97;2.40;;;;;;;12.03;100.00;100214.41;5026492;28;20048;-76
2022/12/31 00:33:51;;;;;;;2.88;2.40;;;;;;;12.02;100.00;100194.47;5023420;28;20124;-76
2022/12/31 00:36:19;;;;;;;3.40;2.30;;;;;;;12.00;100.00;100189.16;5021099;28;20072;-76
2022/12/31 00:38:47;;;;;;;2.40;2.17;;;;;;;11.99;100.00;100192.91;5011059;28;20045;-76
2022/12/31 00:41:13;;;;;;;2.25;1.80;;;;;;;11.98;100.00;100191.19;5020638;28;20384;-76
2022/12/31 00:43:39;;;;;;;3.28;2.60;;;;;;;11.96;100.00;100185.00;5029781;28;20038;-77
2022/12/31 00:46:05;;;;;;;2.70;2.30;;;;;;;11.99;100.00;100184.72;5028550;28;20523;-77
2022/12/31 00:48:31;;;;;;;3.00;2.50;;;;;;;12.01;100.00;100195.47;5025774;28;20435;-76
2022/12/31 00:50:57;;;;;;;2.92;2.63;;;;;;;12.00;100.00;100186.44;5008371;28;20526;-76
2022/12/31 00:53:24;;;;;;;2.72;2.53;;;;;;;12.03;100.00;100176.25;5008487;28;20057;-76
2022/12/31 00:55:50;;;;;;;4.47;2.35;;;;;;;12.01;100.00;100173.66;5013233;28;20117;-76
2022/12/31 00:58:15;;;;;;;4.75;2.20;;;;;;;12.02;100.00;100169.06;5008877;28;20472;-77
2022/12/31 01:00:41;;;;;;;2.53;2.20;;;;;;;12.03;100.00;100179.88;5009223;28;20177;-76
2022/12/31 01:03:07;;;;;;;1.85;1.60;;;;;;;12.06;100.00;100167.81;5009266;28;20104;-76
2022/12/31 01:05:34;;;;;;;3.78;1.90;;;;;;;12.05;100.00;100175.13;5013674;28;20030;-77
2022/12/31 01:07:59;;;;;;;1.85;1.60;;;;;;;12.03;100.00;100177.16;5027329;28;20037;-77
2022/12/31 01:13:09;;;;;;;2.10;1.90;;;;;;;12.02;100.00;100160.91;5009257;28;20106;-77
2022/12/31 01:15:36;;;;;;;2.08;1.50;;;;;;;12.04;100.00;100153.47;5024302;28;20551;-77
2022/12/31 01:18:03;;;;;;;1.38;1.27;;;;;;;12.02;100.00;100150.84;5012173;28;20041;-76
2022/12/31 01:20:33;;;;;;;1.83;1.60;;;;;;;12.01;100.00;100160.03;5007339;28;20135;-76
2022/12/31 01:22:59;;;;;;;2.20;1.60;;;;;;;11.98;100.00;100158.47;5019692;28;20041;-77
2022/12/31 01:25:24;;;;;;;2.35;1.52;;;;;;;11.96;100.00;100156.88;5054254;28;20038;-77
2022/12/31 01:27:49;;;;;;;2.17;1.40;;;;;;;11.97;100.00;100164.03;5007456;28;20038;-76
2022/12/31 01:30:15;;;;;;;2.40;1.30;;;;;;;11.96;100.00;100175.94;5009140;28;20107;-77
2022/12/31 01:32:40;;;;;;;1.92;1.33;;;;;;;11.95;100.00;100166.06;5020360;28;20061;-77
2022/12/31 01:35:06;;;;;;;1.30;1.15;;;;;;;11.95;100.00;100174.22;5013345;28;20029;-76
2022/12/31 01:37:31;;;;;;;1.33;1.13;;;;;;;11.94;100.00;100180.69;5018795;28;20054;-77
2022/12/31 01:39:56;;;;;;;1.80;1.33;;;;;;;11.93;100.00;100177.06;5018050;28;20037;-76
2022/12/31 01:42:22;;;;;;;0.90;0.90;;;;;;;11.93;100.00;100187.13;5008461;28;20038;-76
2022/12/31 01:44:51;;;;;;;1.70;1.30;;;;;;;11.91;100.00;100178.22;5008904;28;20053;-76
2022/12/31 01:47:28;;;;;;;1.65;1.15;;;;;;;11.90;100.00;100185.53;5017416;28;20045;-77
2022/12/31 01:49:59;;;;;;;1.42;1.20;;;;;;;11.90;100.00;100190.13;5013687;28;20508;-77
2022/12/31 01:52:36;;;;;;;1.10;1.00;;;;;;;11.89;100.00;100212.91;5007730;28;20411;-77
2022/12/31 01:55:25;;;;;;;2.28;1.00;;;;;;;11.89;100.00;100238.34;5007929;28;20042;-77
2022/12/31 01:57:55;;;;;;;1.00;1.00;;;;;;;11.89;100.00;100260.16;5008325;28;20038;-77
2022/12/31 02:00:21;;;;;;;1.65;1.05;;;;;;;11.89;100.00;100245.63;5007675;28;20041;-76
2022/12/31 02:02:46;;;;;;;0.80;0.80;;;;;;;11.87;100.00;100234.00;5008503;28;20029;-76
2022/12/31 02:05:34;;;;;;;1.58;0.82;;;;;;;11.87;100.00;100185.81;5008896;28;20037;-77
2022/12/31 02:07:59;;;;;;;1.42;1.10;;;;;;;11.85;100.00;100203.31;5026190;28;20095;-76
2022/12/31 02:10:25;;;;;;;0.82;0.82;;;;;;;11.86;100.00;100207.75;5016286;28;20560;-76
2022/12/31 02:12:51;;;;;;;1.23;0.85;;;;;;;11.84;100.00;100207.88;5027655;28;20037;-75
2022/12/31 02:15:20;;;;;;;1.02;0.95;;;;;;;11.85;100.00;100214.22;5027898;28;20022;-77
2022/12/31 02:18:21;;;;;;;1.20;1.10;;;;;;;11.86;100.00;100216.78;5014192;28;20107;-76
2022/12/31 02:21:18;;;;;;;1.13;1.10;;;;;;;11.83;100.00;100217.03;4965290;28;20047;-78
2022/12/31 02:23:54;;;;;;;1.92;1.58;;;;;;;11.86;100.00;100237.72;5007739;28;20033;-77
2022/12/31 02:26:48;;;;;;;1.27;1.17;;;;;;;11.88;100.00;100243.91;5006669;28;20129;-76
2022/12/31 02:29:22;;;;;;;1.30;1.20;;;;;;;11.87;100.00;100250.34;5007429;28;20033;-77
2022/12/31 02:32:02;;;;;;;1.40;1.30;;;;;;;11.86;100.00;100252.22;5011106;28;20025;-77
2022/12/31 02:34:35;;;;;;;1.50;1.40;;;;;;;11.83;100.00;100249.75;5017020;28;20038;-77
2022/12/31 02:37:05;;;;;;;1.77;1.30;;;;;;;11.85;100.00;100249.63;5023393;28;20044;-77
2022/12/31 02:39:33;;;;;;;2.50;1.17;;;;;;;11.84;100.00;100248.75;5027434;28;20044;-76
2022/12/31 02:41:59;;;;;;;1.20;1.10;;;;;;;11.84;100.00;100250.63;5007499;28;20512;-76
2022/12/31 02:44:33;;;;;;;1.27;1.17;;;;;;;11.83;100.00;100259.78;5007636;28;20529;-76
2022/12/31 02:47:19;;;;;;;1.73;0.80;;;;;;;11.77;100.00;100255.72;5005913;28;20553;-75
2022/12/31 02:50:09;;;;;;;2.45;0.82;;;;;;;11.75;100.00;100260.44;5016138;28;20064;-76
2022/12/31 02:52:53;;;;;;;1.33;1.00;;;;;;;11.69;100.00;100256.38;5026707;28;20501;-76
2022/12/31 02:55:30;;;;;;;0.77;0.77;;;;;;;11.66;100.00;100240.31;5008144;28;20044;-76
2022/12/31 02:58:12;;;;;;;1.90;0.90;;;;;;;11.62;100.00;100238.84;5007815;28;20452;-76
2022/12/31 03:03:30;;;;;;;1.10;1.00;;;;;;;11.60;100.00;100242.69;5006481;28;20485;-76
2022/12/31 03:05:56;;;;;;;1.30;1.20;;;;;;;11.55;100.00;100237.63;5021054;28;20026;-76
2022/12/31 03:08:24;;;;;;;1.20;1.10;;;;;;;11.57;100.00;100241.09;5007438;28;20509;-76
2022/12/31 03:10:50;;;;;;;1.20;1.10;;;;;;;11.56;100.00;100236.63;5024439;28;20026;-76
2022/12/31 03:13:16;;;;;;;1.70;1.60;;;;;;;11.54;100.00;100233.19;5012089;28;20097;-76
2022/12/31 03:15:41;;;;;;;2.50;1.98;;;;;;;11.54;100.00;100224.16;5009932;28;20402;-76
2022/12/31 03:18:13;;;;;;;2.40;2.10;;;;;;;11.54;100.00;100232.31;5010752;28;20096;-76
2022/12/31 03:23:39;;;;;;;2.65;2.10;;;;;;;11.52;100.00;100218.84;5030879;28;20048;-76
2022/12/31 03:26:11;;;;;;;2.60;2.40;;;;;;;11.51;100.00;100211.66;5019769;28;20037;-77
2022/12/31 03:28:39;;;;;;;3.15;2.85;;;;;;;11.50;100.00;100212.66;4993195;28;20057;-76
2022/12/31 03:31:04;;;;;;;3.53;3.00;;;;;;;11.50;100.00;100199.03;5010430;28;20026;-77
2022/12/31 03:33:33;;;;;;;3.15;2.85;;;;;;;11.48;100.00;100209.22;5009433;28;20453;-77
2022/12/31 03:36:03;;;;;;;3.85;2.97;;;;;;;11.45;100.00;100193.97;5018859;28;20516;-77
2022/12/31 03:38:28;;;;;;;4.78;3.13;;;;;;;11.42;100.00;100194.25;5024625;28;20364;-76
2022/12/31 03:40:53;;;;;;;3.40;2.80;;;;;;;11.44;100.00;100194.97;5031475;28;20492;-76
2022/12/31 03:43:19;;;;;;;3.45;3.00;;;;;;;11.44;100.00;100185.94;5030132;28;20401;-76
2022/12/31 03:45:50;;;;;;;2.58;2.38;;;;;;;11.43;100.00;100193.25;5010721;28;20391;-76
2022/12/31 03:48:16;;;;;;;2.83;2.33;;;;;;;11.43;100.00;100187.81;5011085;28;20052;-76
2022/12/31 03:50:42;;;;;;;2.80;2.38;;;;;;;11.44;100.00;100191.41;5007864;28;20046;-77
2022/12/31 03:53:07;;;;;;;2.20;1.80;;;;;;;11.43;100.00;100182.38;5009002;28;20037;-76
2022/12/31 03:55:33;;;;;;;1.98;1.63;;;;;;;11.44;100.00;100184.09;5010322;28;20018;-76
2022/12/31 03:57:58;;;;;;;1.60;1.38;;;;;;;11.43;100.00;100178.78;5010267;28;20082;-76
2022/12/31 04:00:24;;;;;;;4.22;1.40;;;;;;;11.45;100.00;100177.63;5010044;28;20032;-76
2022/12/31 04:02:49;;;;;;;1.40;1.23;;;;;;;11.44;100.00;100173.19;5010523;28;20539;-76
2022/12/31 04:05:16;;;;;;;1.50;1.40;;;;;;;11.45;100.00;100185.81;5012837;28;20041;-76
2022/12/31 04:07:42;;;;;;;3.25;1.67;;;;;;;11.46;100.00;100184.81;5029238;28;20108;-76
2022/12/31 04:10:10;;;;;;;1.20;1.10;;;;;;;11.45;100.00;100174.06;5000032;28;20369;-76
2022/12/31 04:12:36;;;;;;;2.72;1.60;;;;;;;11.48;100.00;100180.09;5010255;28;20132;-77
2022/12/31 04:15:01;;;;;;;1.60;1.50;;;;;;;11.49;100.00;100186.41;5009773;28;20041;-76
2022/12/31 04:17:27;;;;;;;1.50;1.40;;;;;;;11.50;100.00;100185.41;5009895;28;20034;-77
2022/12/31 04:19:52;;;;;;;1.30;1.20;;;;;;;11.49;100.00;100180.97;5009020;28;20131;-77
2022/12/31 04:22:18;;;;;;;1.98;1.20;;;;;;;11.54;100.00;100183.28;5009213;28;20056;-78
2022/12/31 04:24:43;;;;;;;1.30;1.20;;;;;;;11.56;100.00;100184.00;5015945;28;20029;-77
2022/12/31 04:27:10;;;;;;;1.52;1.40;;;;;;;11.56;100.00;100182.13;5026526;28;20793;-77
2022/12/31 04:29:35;;;;;;;1.45;1.35;;;;;;;11.59;100.00;100178.31;5016439;28;20397;-77
2022/12/31 04:32:02;;;;;;;1.30;1.20;;;;;;;11.58;100.00;100177.44;5008266;28;20026;-77
2022/12/31 04:34:27;;;;;;;1.67;1.38;;;;;;;11.61;100.00;100162.66;5008138;28;20390;-76
2022/12/31 04:36:52;;;;;;;1.52;1.42;;;;;;;11.64;100.00;100167.84;5021785;28;20030;-77
2022/12/31 04:39:18;;;;;;;1.80;1.42;;;;;;;11.67;100.00;100143.94;5009935;28;20066;-76
2022/12/31 04:41:43;;;;;;;1.60;1.40;;;;;;;11.65;100.00;100161.41;5024613;28;20040;-76
2022/12/31 04:44:08;;;;;;;1.60;1.50;;;;;;;11.58;100.00;100199.22;5027933;28;20025;-78
2022/12/31 04:46:34;;;;;;;3.05;1.92;;;;;;;11.53;100.00;100193.31;5014792;28;20070;-77
2022/12/31 04:49:00;;;;;;;2.65;1.70;;;;;;;11.53;100.00;100178.84;5009080;28;20385;-77
2022/12/31 04:51:27;;;;;;;3.15;2.03;;;;;;;11.54;100.00;100169.66;5006934;28;20028;-77
2022/12/31 04:53:53;;;;;;;2.20;1.80;;;;;;;11.59;100.00;100165.53;5008437;28;20042;-77
2022/12/31 04:56:19;;;;;;;1.90;1.80;;;;;;;11.66;100.00;100199.44;5015484;28;20113;-77
2022/12/31 04:58:44;;;;;;;1.35;1.25;;;;;;;11.68;100.00;100197.44;5007932;28;20133;-77
2022/12/31 05:01:13;;;;;;;3.90;1.42;;;;;;;11.80;100.00;100189.16;5009037;28;20029;-77
2022/12/31 05:03:38;;;;;;;4.18;1.52;;;;;;;11.83;100.00;100178.88;5008500;28;20095;-76
2022/12/31 05:06:07;;;;;;;1.83;1.10;;;;;;;11.92;100.00;100183.53;5017942;28;20029;-76
2022/12/31 05:08:33;;;;;;;6.60;1.58;;;;;;;12.02;100.00;100209.97;5020571;28;20101;-77
2022/12/31 05:10:58;;;;;;;4.32;1.20;;;;;;;12.12;100.00;100203.56;5016504;28;20501;-77
2022/12/31 05:13:25;;;;;;;4.60;1.20;;;;;;;12.29;100.00;100218.41;5028593;28;20033;-78
2022/12/31 05:15:51;;;;;;;2.38;0.90;;;;;;;12.36;100.00;100200.50;5010010;28;20037;-75
2022/12/31 05:18:17;;;;;;;4.72;1.13;;;;;;;12.47;100.00;100203.13;5009285;28;20104;-77
2022/12/31 05:20:43;;;;;;;2.50;1.08;;;;;;;12.56;100.00;100208.75;5024861;28;20025;-78
2022/12/31 05:23:08;;;;;;;5.65;1.23;;;;;;;12.64;100.00;100222.56;5026609;28;20047;-78
2022/12/31 05:25:34;;;;;;;1.63;1.20;;;;;;;12.65;100.00;100214.22;5016863;28;20056;-77
2022/12/31 05:27:59;;;;;;;2.53;1.52;;;;;;;12.57;100.00;100216.78;5028173;28;20029;-77
2022/12/31 05:30:25;;;;;;;2.25;1.00;;;;;;;12.54;100.00;100218.94;5027815;28;20045;-77
2022/12/31 05:32:50;;;;;;;2.33;1.08;;;;;;;12.57;100.00;100235.88;5027941;28;20044;-75
2022/12/31 05:35:15;;;;;;;3.88;1.38;;;;;;;12.61;100.00;100220.09;5022807;28;20049;-77
2022/12/31 05:37:41;;;;;;;3.45;0.80;;;;;;;12.68;100.00;100241.25;5020389;28;20046;-77
2022/12/31 05:40:07;;;;;;;2.05;1.00;;;;;;;12.76;100.00;100232.34;5015398;28;20045;-77
2022/12/31 05:42:32;;;;;;;3.70;1.17;;;;;;;12.83;100.00;100230.78;5008328;28;20026;-76
2022/12/31 05:44:58;;;;;;;2.15;0.90;;;;;;;12.92;100.00;100231.81;5008144;28;20042;-77
2022/12/31 05:47:23;;;;;;;2.80;0.80;;;;;;;12.96;100.00;100228.66;5007644;28;20084;-77
2022/12/31 05:49:49;;;;;;;2.15;0.90;;;;;;;12.99;100.00;100241.16;5016770;28;20041;-76
2022/12/31 05:52:14;;;;;;;0.93;0.75;;;;;;;13.01;100.00;100230.97;5027311;28;20183;-77
2022/12/31 05:54:39;;;;;;;4.40;1.02;;;;;;;13.08;100.00;100220.34;5025489;28;20029;-77
2022/12/31 05:57:05;;;;;;;2.53;0.80;;;;;;;13.06;100.00;100219.63;5009253;28;20519;-76
2022/12/31 05:59:31;;;;;;;1.02;0.70;;;;;;;13.13;100.00;100220.75;5027634;28;20049;-77
2022/12/31 06:01:56;;;;;;;1.67;0.65;;;;;;;13.16;100.00;100225.94;5026402;28;20460;-78
2022/12/31 06:04:22;;;;;;;4.60;0.90;;;;;;;13.14;100.00;100227.94;5019075;28;20541;-77
2022/12/31 06:06:48;;;;;;;2.78;1.05;;;;;;;13.22;100.00;100181.69;5002773;28;20659;-77
2022/12/31 06:09:15;;;;;;;1.90;0.77;;;;;;;13.27;100.00;100223.09;5006259;28;20030;-77
2022/12/31 06:11:40;;;;;;;1.65;0.70;;;;;;;13.30;100.00;100252.88;5039323;28;20068;-77
2022/12/31 06:14:06;;;;;;;3.90;1.00;;;;;;;13.37;100.00;100237.63;5007573;28;20091;-77
2022/12/31 06:16:31;;;;;;;4.25;0.85;;;;;;;13.42;100.00;100253.56;5007842;28;20120;-76
2022/12/31 06:18:59;;;;;;;3.60;0.95;;;;;;;13.47;100.00;100246.66;5007121;28;20046;-77
2022/12/31 06:21:24;;;;;;;1.98;0.77;;;;;;;13.51;100.00;100263.66;5005961;28;20375;-76
2022/12/31 06:23:49;;;;;;;1.77;0.80;;;;;;;13.55;100.00;100248.69;5006059;28;20065;-76
2022/12/31 06:26:15;;;;;;;1.38;0.80;;;;;;;13.61;100.00;100248.09;5014281;28;20038;-77
2022/12/31 06:28:41;;;;;;;1.77;1.00;;;;;;;13.65;100.00;100255.00;5007609;28;20131;-76
2022/12/31 06:31:08;;;;;;;2.70;0.80;;;;;;;13.71;100.00;100261.78;5007283;28;20034;-77
2022/12/31 06:33:34;;;;;;;4.25;0.77;;;;;;;13.73;100.00;100235.16;5005654;28;20022;-77
2022/12/31 06:36:02;;;;;;;2.03;0.60;;;;;;;13.80;100.00;100260.88;5015841;28;20136;-77
2022/12/31 06:38:29;;;;;;;1.75;0.63;;;;;;;13.85;100.00;100249.50;5027167;28;20033;-77
2022/12/31 06:40:55;;;;;;;2.15;0.70;;;;;;;13.92;100.00;100242.44;5024095;28;20129;-76
2022/12/31 06:43:21;;;;;;;2.28;0.70;;;;;;;13.96;100.00;100249.34;5039455;28;20124;-76
2022/12/31 06:45:47;;;;;;;2.55;0.60;;;;;;;13.99;100.00;100229.91;5027040;28;20079;-76
2022/12/31 06:48:13;;;;;;;6.43;0.82;;;;;;;14.09;100.00;100249.03;5023950;28;20490;-77
2022/12/31 06:50:39;;;;;;;1.98;0.50;;;;;;;14.17;100.00;100260.94;5022575;28;20049;-76
2022/12/31 06:53:04;;;;;;;2.35;0.70;;;;;;;14.18;100.00;100254.47;5011355;28;20105;-77
2022/12/31 06:55:30;;;;;;;1.38;0.60;;;;;;;14.21;100.00;100254.16;5043834;28;20038;-77
2022/12/31 06:57:56;;;;;;;2.70;0.73;;;;;;;14.25;100.00;100249.25;5016602;28;20021;-77
2022/12/31 07:00:21;;;;;;;1.25;0.40;;;;;;;14.27;100.00;100250.00;5020122;28;20496;-77
2022/12/31 07:03:00;;;;;;;1.00;0.60;;;;;;;14.36;100.00;100257.28;5026894;28;20091;-78
2022/12/31 07:05:45;;;;;;;2.38;0.70;;;;;;;14.36;100.00;100256.41;5024210;28;20037;-77
2022/12/31 07:08:32;;;;;;;0.90;0.60;;;;;;;14.30;100.00;100245.06;5025900;28;20740;-77
2022/12/31 07:11:12;;;;;;;0.95;0.70;;;;;;;14.30;100.00;100238.72;5024551;28;20041;-78
2022/12/31 07:13:43;;;;;;;1.45;0.85;;;;;;;14.31;100.00;100237.69;5018369;28;20030;-77
2022/12/31 07:16:31;;;;;;;2.70;0.88;;;;;;;14.36;100.00;100253.66;5014768;28;20049;-77
2022/12/31 07:19:11;;;;;;;4.82;0.93;;;;;;;14.33;100.00;100262.19;5019114;28;20049;-77
2022/12/31 07:21:39;;;;;;;4.57;1.00;;;;;;;14.37;100.00;100263.63;5018470;28;20456;-77
2022/12/31 07:24:06;;;;;;;3.53;0.80;;;;;;;14.36;100.00;100250.94;5014085;28;20184;-77
2022/12/31 07:27:07;;;;;;;4.30;0.98;;;;;;;14.38;100.00;100257.13;5007495;28;20119;-77
2022/12/31 07:30:04;;;;;;;1.30;0.73;;;;;;;14.39;100.00;100248.75;5030882;28;20393;-77
2022/12/31 07:33:07;;;;;;;3.55;1.00;;;;;;;14.43;100.00;100255.66;5015052;28;20397;-77
2022/12/31 07:35:32;;;;;;;;;;;;;;;14.45;100.00;100267.31;5015578;28;20025;-77
2022/12/31 07:38:27;;;;;;;5.10;1.00;;;;;;;14.46;99.83;100266.31;5008931;28;19959;-77
2022/12/31 07:40:59;;;;;;;3.03;0.88;;;;;;;14.50;99.37;100266.91;5017901;28;20771;-77
2022/12/31 07:43:50;;;;;;;3.13;0.85;;;;;;;14.46;99.35;100269.06;5030476;28;20051;-77
2022/12/31 07:46:21;;;;;;;2.88;0.90;;;;;;;14.46;99.63;100258.13;5006020;28;20147;-77
2022/12/31 07:48:47;;;;;;;3.15;0.90;;;;;;;14.45;99.23;100261.84;5027014;28;20070;-77
2022/12/31 07:51:12;;;;;;;1.35;0.80;;;;;;;14.43;99.43;100263.88;5028587;28;20100;-77
2022/12/31 07:53:38;;;;;;;3.00;1.10;;;;;;;14.41;100.00;100278.72;5030305;28;20046;-77
2022/12/31 07:56:05;;;;;;;2.45;0.77;;;;;;;14.30;100.00;100266.09;5017409;28;20402;-77
2022/12/31 07:58:40;;;;;;;2.80;0.93;;;;;;;14.25;100.00;100262.94;5009823;28;20494;-77
2022/12/31 08:01:14;;;;;;;3.50;0.88;;;;;;;14.20;100.00;100268.84;5010214;28;20037;-77
2022/12/31 08:04:08;;;;;;;4.68;0.90;;;;;;;14.14;100.00;100272.19;5041434;28;20643;-77
2022/12/31 08:06:48;;;;;;;7.53;1.25;;;;;;;14.14;100.00;100274.94;5023501;28;20443;-77
2022/12/31 08:09:23;;;;;;;3.05;0.70;;;;;;;14.09;100.00;100284.59;5025690;28;20038;-78
2022/12/31 08:11:55;;;;;;;2.47;0.80;;;;;;;14.06;100.00;100293.09;5010805;28;20038;-77
2022/12/31 08:14:21;;;;;;;1.75;0.85;;;;;;;14.03;100.00;100303.31;5042082;28;20517;-77
2022/12/31 08:16:47;;;;;;;5.32;0.98;;;;;;;13.99;100.00;100318.28;5041897;28;20030;-77
2022/12/31 08:19:25;;;;;;;4.13;0.90;;;;;;;14.00;100.00;100336.44;5008689;28;20050;-77
2022/12/31 08:22:18;;;;;;;1.73;0.68;;;;;;;13.97;100.00;100336.72;4991419;28;20041;-77
2022/12/31 08:25:20;;;;;;;2.30;1.27;;;;;;;13.99;100.00;100347.53;5009024;28;20551;-77
2022/12/31 08:27:59;;;;;;;2.97;0.93;;;;;;;14.02;100.00;100352.69;4991565;28;20072;-77
2022/12/31 08:30:42;;;;;;;4.75;0.90;;;;;;;14.02;100.00;100356.28;5008203;28;20091;-77
2022/12/31 08:33:50;;;;;;;4.72;2.13;;;;;;;14.05;100.00;100387.97;5008648;28;20034;-77
2022/12/31 08:36:41;;;;;;;4.47;1.00;;;;;;;14.10;100.00;100384.78;5019343;28;20095;-77
2022/12/31 08:39:20;;;;;;;3.33;0.90;;;;;;;14.12;100.00;100386.34;5009864;28;20033;-77
2022/12/31 08:41:52;;;;;;;4.13;1.40;;;;;;;14.17;100.00;100400.47;5014102;28;20125;-77
2022/12/31 08:44:36;;;;;;;2.40;0.85;;;;;;;14.21;100.00;100403.78;5010297;28;20120;-77
2022/12/31 08:47:01;;;;;;;3.05;0.80;;;;;;;14.20;100.00;100411.13;5009350;28;20048;-77
2022/12/31 08:49:29;;;;;;;3.33;1.00;;;;;;;14.16;100.00;100401.47;5007955;28;20037;-77
2022/12/31 08:51:54;;;;;;;3.80;1.42;;;;;;;14.13;100.00;100400.88;5007063;28;20092;-77
2022/12/31 08:54:20;;;;;;;5.18;1.02;;;;;;;14.16;100.00;100428.84;5011352;28;20485;-76
2022/12/31 08:56:59;;;;;;;6.38;1.25;;;;;;;14.19;100.00;100433.16;5027028;28;20129;-77
2022/12/31 08:59:42;;;;;;;3.05;0.90;;;;;;;14.20;100.00;100437.63;5028840;28;20037;-77
2022/12/31 09:02:30;;;;;;;4.78;1.38;;;;;;;14.20;100.00;100448.56;5009007;28;20122;-77
2022/12/31 09:05:29;;;;;;;4.07;1.00;;;;;;;14.22;100.00;100450.16;5007044;28;20037;-77
2022/12/31 09:08:17;;;;;;;0.95;0.73;;;;;;;14.23;100.00;100460.09;5027287;28;20045;-77
2022/12/31 09:10:55;;;;;;;1.38;0.70;;;;;;;14.27;100.00;100458.81;5018027;28;20065;-77
2022/12/31 09:13:32;;;;;;;2.85;0.80;;;;;;;14.30;100.00;100453.03;5009047;28;20088;-77
2022/12/31 09:16:11;;;;;;;4.93;0.70;;;;;;;14.30;100.00;100469.44;5006844;28;20064;-76
2022/12/31 09:18:41;;;;;;;2.88;0.82;;;;;;;14.30;100.00;100488.59;5038564;28;20057;-77
2022/12/31 09:21:12;;;;;;;2.95;1.20;;;;;;;14.29;100.00;100500.56;5018574;28;20124;-76
2022/12/31 09:23:38;;;;;;;2.25;0.93;;;;;;;14.24;100.00;100511.06;5007676;28;20068;-77
2022/12/31 09:26:19;;;;;;;7.32;1.10;;;;;;;14.13;100.00;100516.69;5013313;28;20033;-77
2022/12/31 09:28:54;;;;;;;3.10;1.13;;;;;;;14.03;100.00;100518.50;5018456;28;20041;-77
2022/12/31 09:31:35;;;;;;;2.03;1.08;;;;;;;13.96;100.00;100514.63;5022653;28;20052;-77
2022/12/31 09:34:30;;;;;;;1.83;0.80;;;;;;;13.90;100.00;100516.06;5039616;28;20516;-76
2022/12/31 09:37:01;;;;;;;5.45;1.40;;;;;;;13.84;100.00;100515.75;5015898;28;20088;-76
2022/12/31 09:39:38;;;;;;;1.60;0.90;;;;;;;13.84;100.00;100518.47;5022609;28;20149;-76
2022/12/31 09:42:24;;;;;;;1.35;0.98;;;;;;;13.83;100.00;100503.94;5007549;28;20034;-76
2022/12/31 09:45:41;;;;;;;2.25;0.95;;;;;;;13.83;100.00;100522.22;5009151;28;20037;-77
2022/12/31 09:48:21;;;;;;;3.60;1.05;;;;;;;13.83;100.00;100512.16;5014001;28;20116;-77
2022/12/31 09:50:56;;;;;;;3.92;1.23;;;;;;;13.83;100.00;100516.75;5008755;28;20078;-77
2022/12/31 09:54:05;;;;;;;5.93;1.10;;;;;;;13.84;100.00;100516.59;5028856;28;20030;-77
2022/12/31 09:56:56;;;;;;;4.18;1.65;;;;;;;13.87;100.00;100521.81;5030482;28;20133;-76
2022/12/31 09:59:41;;;;;;;3.92;1.23;;;;;;;13.88;100.00;100507.13;5030952;28;20042;-76
2022/12/31 10:02:15;;;;;;;6.30;1.02;;;;;;;13.93;100.00;100526.72;5025874;28;20341;-76
2022/12/31 10:05:18;;;;;;;2.13;1.17;;;;;;;13.96;100.00;100514.63;5026711;28;20369;-77
2022/12/31 10:08:11;;;;;;;2.20;1.00;;;;;;;13.97;100.00;100510.88;5018707;28;20052;-77
2022/12/31 10:10:52;;;;;;;5.97;1.30;;;;;;;14.01;100.00;100517.81;5015720;28;20029;-76
2022/12/31 10:13:29;;;;;;;5.88;1.15;;;;;;;14.04;100.00;100521.13;5017929;28;20338;-77
2022/12/31 10:16:01;;;;;;;5.63;1.20;;;;;;;14.07;100.00;100524.56;5020216;28;20056;-77
2022/12/31 10:18:35;;;;;;;4.38;1.33;;;;;;;14.07;100.00;100519.97;5018583;28;20053;-77
2022/12/31 10:21:47;;;;;;;5.40;1.40;;;;;;;14.09;100.00;100517.13;5017614;28;20034;-77
2022/12/31 10:25:03;;;;;;;2.03;0.93;;;;;;;14.13;100.00;100519.41;5015833;28;20053;-77
2022/12/31 10:27:50;;;;;;;5.45;1.15;;;;;;;14.17;100.00;100512.63;5012024;28;20159;-77
2022/12/31 10:30:20;;;;;;;3.60;1.00;;;;;;;14.22;100.00;100506.72;5021597;28;20064;-77
2022/12/31 10:32:55;;;;;;;5.75;1.50;;;;;;;14.24;100.00;100502.00;5019742;28;20025;-77
2022/12/31 10:35:27;;;;;;;5.28;1.25;;;;;;;14.28;100.00;100498.84;5020164;28;20045;-77
2022/12/31 10:38:11;;;;;;;2.13;1.02;;;;;;;14.32;100.00;100498.56;5017797;28;20499;-76
2022/12/31 10:41:14;;;;;;;7.25;1.27;;;;;;;14.36;100.00;100491.75;5014781;28;20041;-77
2022/12/31 10:43:57;;;;;;;5.93;1.25;;;;;;;14.38;100.00;100485.16;5016099;28;20486;-77
2022/12/31 10:46:34;;;;;;;5.40;1.55;;;;;;;14.39;100.00;100477.78;5039621;28;20030;-76
2022/12/31 10:49:24;;;;;;;3.90;1.20;;;;;;;14.45;100.00;100496.38;5019637;28;20037;-77
2022/12/31 10:52:09;;;;;;;9.50;1.75;;;;;;;14.46;100.00;100501.72;5019393;28;20038;-77
2022/12/31 10:55:23;;;;;;;7.82;1.30;;;;;;;14.49;100.00;100508.78;5015255;28;20051;-77
2022/12/31 10:58:16;;;;;;;4.10;1.25;;;;;;;14.49;100.00;100511.53;5018958;28;20397;-77
2022/12/31 11:00:52;;;;;;;3.67;1.55;;;;;;;14.48;100.00;100518.03;5018588;28;20041;-76
2022/12/31 11:03:29;;;;;;;5.95;1.13;;;;;;;14.52;99.85;100514.00;5017000;28;20039;-76
2022/12/31 11:06:33;;;;;;;7.45;1.20;;;;;;;14.58;99.38;100509.81;5018722;28;20128;-76
2022/12/31 11:09:11;;;;;;;6.82;1.65;;;;;;;14.61;98.11;100525.94;4989835;28;20129;-77
2022/12/31 11:11:54;;;;;;;6.18;1.13;;;;;;;14.60;99.54;100532.44;5010406;28;20050;-77
2022/12/31 11:14:38;;;;;;;4.45;1.30;;;;;;;14.64;98.88;100539.31;5018619;28;20481;-76
2022/12/31 11:17:21;;;;;;;5.80;1.50;;;;;;;14.65;98.17;100519.19;5019176;28;20063;-77
2022/12/31 11:20:10;;;;;;;2.28;1.20;;;;;;;14.67;98.02;100508.94;5017335;28;20512;-77
2022/12/31 11:23:06;;;;;;;4.45;1.40;;;;;;;14.73;97.45;100528.38;5015929;28;20443;-77
2022/12/31 11:25:54;;;;;;;3.38;1.23;;;;;;;14.80;96.02;100520.44;5010507;28;20128;-76
2022/12/31 11:28:41;;;;;;;3.78;1.83;;;;;;;14.84;96.62;100534.72;5018733;28;20160;-77
2022/12/31 11:31:43;;;;;;;6.03;2.00;;;;;;;14.86;96.28;100535.41;5017805;28;20087;-77
2022/12/31 11:34:36;;;;;;;5.68;1.55;;;;;;;14.86;95.70;100555.47;5012983;28;20041;-77
2022/12/31 11:37:27;;;;;;;6.68;2.22;;;;;;;14.87;95.30;100548.97;5018049;28;20125;-77
2022/12/31 11:40:11;;;;;;;5.88;1.70;;;;;;;14.87;94.32;100535.25;5015155;28;20046;-76
2022/12/31 11:42:54;;;;;;;7.93;1.10;;;;;;;14.91;93.53;100550.41;5022175;28;20055;-77
2022/12/31 11:45:42;;;;;;;10.57;1.80;;;;;;;14.92;93.86;100546.69;5023139;28;20037;-77
2022/12/31 11:48:58;;;;;;;8.30;1.38;;;;;;;14.92;93.69;100543.03;5020148;28;20049;-77
2022/12/31 11:51:59;;;;;;;6.07;1.45;;;;;;;14.90;93.73;100545.09;4975393;28;20093;-76
2022/12/31 11:54:44;;;;;;;6.25;1.00;;;;;;;14.87;94.18;100545.38;5020134;28;20428;-76
2022/12/31 11:57:28;;;;;;;6.72;1.67;;;;;;;14.83;95.37;100553.03;5022314;28;20046;-77
2022/12/31 12:00:11;;;;;;;6.93;1.70;;;;;;;14.79;95.45;100540.63;5030012;28;20549;-76